sensor_id;sensor_type;location;lat;lon;timestamp;pressure;altitude;pressure_sealevel;temperature;humidity
5053;BME280;2545;50.892;5.740;2023-03-03T00:00:43;56131.69;;;-142.21;100.00
5053;BME280;2545;50.892;5.740;2023-03-03T00:03:11;56088.56;;;-142.21;100.00
5053;BME280;2545;50.892;5.740;2023-03-03T00:05:39;56116.00;;;-142.21;100.00
5053;BME280;2545;50.892;5.740;2023-03-03T00:08:05;56147.38;;;-142.21;100.00
5053;BME280;2545;50.892;5.740;2023-03-03T00:10:30;56141.50;;;-142.21;100.00
5053;BME280;2545;50.892;5.740;2023-03-03T00:12:56;56151.31;;;-142.21;100.00
5053;BME280;2545;50.892;5.740;2023-03-03T00:15:23;56147.38;;;-142.21;100.00
5053;BME280;2545;50.892;5.740;2023-03-03T00:17:49;56161.13;;;-142.21;100.00
5053;BME280;2545;50.892;5.740;2023-03-03T00:20:33;56092.47;;;-142.21;100.00
5053;BME280;2545;50.892;5.740;2023-03-03T00:26:35;56159.16;;;-142.21;100.00
5053;BME280;2545;50.892;5.740;2023-03-03T00:29:30;56147.38;;;-142.21;100.00
5053;BME280;2545;50.892;5.740;2023-03-03T00:34:33;56098.38;;;-142.21;100.00
5053;BME280;2545;50.892;5.740;2023-03-03T00:36:58;56135.63;;;-142.21;100.00
5053;BME280;2545;50.892;5.740;2023-03-03T00:39:33;56131.69;;;-142.21;100.00
5053;BME280;2545;50.892;5.740;2023-03-03T00:41:59;56139.53;;;-142.21;100.00
5053;BME280;2545;50.892;5.740;2023-03-03T00:47:29;56135.63;;;-142.21;100.00
5053;BME280;2545;50.892;5.740;2023-03-03T00:52:34;56163.06;;;-142.21;100.00
5053;BME280;2545;50.892;5.740;2023-03-03T00:55:00;56153.28;;;-142.21;100.00
5053;BME280;2545;50.892;5.740;2023-03-03T00:57:26;56155.22;;;-142.21;100.00
5053;BME280;2545;50.892;5.740;2023-03-03T00:59:51;56163.06;;;-142.21;100.00
5053;BME280;2545;50.892;5.740;2023-03-03T01:02:16;56145.44;;;-142.21;100.00
5053;BME280;2545;50.892;5.740;2023-03-03T01:04:47;56161.13;;;-142.21;100.00
5053;BME280;2545;50.892;5.740;2023-03-03T01:07:13;56119.94;;;-142.21;100.00
5053;BME280;2545;50.892;5.740;2023-03-03T01:09:39;56139.53;;;-142.21;100.00
5053;BME280;2545;50.892;5.740;2023-03-03T01:12:04;56178.75;;;-142.21;100.00
5053;BME280;2545;50.892;5.740;2023-03-03T01:14:30;56165.03;;;-142.21;100.00
5053;BME280;2545;50.892;5.740;2023-03-03T01:16:56;56084.63;;;-142.21;100.00
5053;BME280;2545;50.892;5.740;2023-03-03T01:19:22;56092.47;;;-142.21;100.00
5053;BME280;2545;50.892;5.740;2023-03-03T01:21:47;56145.44;;;-142.21;100.00
5053;BME280;2545;50.892;5.740;2023-03-03T01:24:12;56098.38;;;-142.21;100.00
5053;BME280;2545;50.892;5.740;2023-03-03T01:26:38;56125.81;;;-142.21;100.00
5053;BME280;2545;50.892;5.740;2023-03-03T01:29:03;56127.78;;;-142.21;100.00
5053;BME280;2545;50.892;5.740;2023-03-03T01:31:28;56149.34;;;-142.21;100.00
5053;BME280;2545;50.892;5.740;2023-03-03T01:33:53;56147.38;;;-142.21;100.00
5053;BME280;2545;50.892;5.740;2023-03-03T01:36:26;56161.13;;;-142.21;100.00
5053;BME280;2545;50.892;5.740;2023-03-03T01:38:52;56098.38;;;-142.21;100.00
5053;BME280;2545;50.892;5.740;2023-03-03T01:41:17;56153.28;;;-142.21;100.00
5053;BME280;2545;50.892;5.740;2023-03-03T01:43:45;56157.19;;;-142.21;100.00
5053;BME280;2545;50.892;5.740;2023-03-03T01:49:12;56135.63;;;-142.21;100.00
5053;BME280;2545;50.892;5.740;2023-03-03T01:52:00;56106.22;;;-142.21;100.00
5053;BME280;2545;50.892;5.740;2023-03-03T01:54:34;56159.16;;;-142.21;100.00
5053;BME280;2545;50.892;5.740;2023-03-03T01:57:05;56131.69;;;-142.21;100.00
5053;BME280;2545;50.892;5.740;2023-03-03T01:59:34;56102.28;;;-142.21;100.00
5053;BME280;2545;50.892;5.740;2023-03-03T02:02:03;56159.16;;;-142.21;100.00
5053;BME280;2545;50.892;5.740;2023-03-03T02:04:29;56098.38;;;-142.21;100.00
5053;BME280;2545;50.892;5.740;2023-03-03T02:06:58;56110.13;;;-142.21;100.00
5053;BME280;2545;50.892;5.740;2023-03-03T02:09:31;56151.31;;;-142.21;100.00
5053;BME280;2545;50.892;5.740;2023-03-03T02:12:04;56182.69;;;-142.21;100.00
5053;BME280;2545;50.892;5.740;2023-03-03T02:14:31;56167.00;;;-142.21;100.00
5053;BME280;2545;50.892;5.740;2023-03-03T02:16:56;56139.53;;;-142.21;100.00
5053;BME280;2545;50.892;5.740;2023-03-03T02:19:37;56129.75;;;-142.21;100.00
5053;BME280;2545;50.892;5.740;2023-03-03T02:22:04;56155.22;;;-142.21;100.00
5053;BME280;2545;50.892;5.740;2023-03-03T02:24:42;56135.63;;;-142.21;100.00
5053;BME280;2545;50.892;5.740;2023-03-03T02:27:10;56157.19;;;-142.21;100.00
5053;BME280;2545;50.892;5.740;2023-03-03T02:29:35;56172.88;;;-142.21;100.00
5053;BME280;2545;50.892;5.740;2023-03-03T02:32:01;56176.78;;;-142.21;100.00
5053;BME280;2545;50.892;5.740;2023-03-03T02:34:26;56151.31;;;-142.21;100.00
5053;BME280;2545;50.892;5.740;2023-03-03T02:36:51;56112.09;;;-142.21;100.00
5053;BME280;2545;50.892;5.740;2023-03-03T02:39:20;56137.59;;;-142.21;100.00
5053;BME280;2545;50.892;5.740;2023-03-03T02:44:47;56141.50;;;-142.21;100.00
5053;BME280;2545;50.892;5.740;2023-03-03T02:47:13;56155.22;;;-142.21;100.00
5053;BME280;2545;50.892;5.740;2023-03-03T02:49:38;56155.22;;;-142.21;100.00
5053;BME280;2545;50.892;5.740;2023-03-03T02:52:06;56131.69;;;-142.21;100.00
5053;BME280;2545;50.892;5.740;2023-03-03T02:54:34;56147.38;;;-142.21;100.00
5053;BME280;2545;50.892;5.740;2023-03-03T02:57:00;56149.34;;;-142.21;100.00
5053;BME280;2545;50.892;5.740;2023-03-03T02:59:25;56100.31;;;-142.21;100.00
5053;BME280;2545;50.892;5.740;2023-03-03T03:01:52;56170.91;;;-142.21;100.00
5053;BME280;2545;50.892;5.740;2023-03-03T03:04:21;56119.94;;;-142.21;100.00
5053;BME280;2545;50.892;5.740;2023-03-03T03:06:46;56141.50;;;-142.21;100.00
5053;BME280;2545;50.892;5.740;2023-03-03T03:09:12;56151.31;;;-142.21;100.00
5053;BME280;2545;50.892;5.740;2023-03-03T03:11:38;56139.53;;;-142.21;100.00
5053;BME280;2545;50.892;5.740;2023-03-03T03:14:06;56127.78;;;-142.21;100.00
5053;BME280;2545;50.892;5.740;2023-03-03T03:16:32;56137.59;;;-142.21;100.00
5053;BME280;2545;50.892;5.740;2023-03-03T03:18:58;56127.78;;;-142.21;100.00
5053;BME280;2545;50.892;5.740;2023-03-03T03:21:24;56116.00;;;-142.21;100.00
5053;BME280;2545;50.892;5.740;2023-03-03T03:23:50;56127.78;;;-142.21;100.00
5053;BME280;2545;50.892;5.740;2023-03-03T03:26:15;56106.22;;;-142.21;100.00
5053;BME280;2545;50.892;5.740;2023-03-03T03:28:41;56098.38;;;-142.21;100.00
5053;BME280;2545;50.892;5.740;2023-03-03T03:31:08;56116.00;;;-142.21;100.00
5053;BME280;2545;50.892;5.740;2023-03-03T03:33:33;56149.34;;;-142.21;100.00
5053;BME280;2545;50.892;5.740;2023-03-03T03:35:59;56151.31;;;-142.21;100.00
5053;BME280;2545;50.892;5.740;2023-03-03T03:38:25;56161.13;;;-142.21;100.00
5053;BME280;2545;50.892;5.740;2023-03-03T03:40:52;56116.00;;;-142.21;100.00
5053;BME280;2545;50.892;5.740;2023-03-03T03:43:17;56147.38;;;-142.21;100.00
5053;BME280;2545;50.892;5.740;2023-03-03T03:45:43;56139.53;;;-142.21;100.00
5053;BME280;2545;50.892;5.740;2023-03-03T03:48:08;56125.81;;;-142.21;100.00
5053;BME280;2545;50.892;5.740;2023-03-03T03:50:34;56135.63;;;-142.21;100.00
5053;BME280;2545;50.892;5.740;2023-03-03T03:53:00;56167.00;;;-142.21;100.00
5053;BME280;2545;50.892;5.740;2023-03-03T03:55:26;56143.47;;;-142.21;100.00
5053;BME280;2545;50.892;5.740;2023-03-03T03:57:51;56100.31;;;-142.21;100.00
5053;BME280;2545;50.892;5.740;2023-03-03T04:00:16;56125.81;;;-142.21;100.00
5053;BME280;2545;50.892;5.740;2023-03-03T04:02:42;56110.13;;;-142.21;100.00
5053;BME280;2545;50.892;5.740;2023-03-03T04:05:07;56172.88;;;-142.21;100.00
5053;BME280;2545;50.892;5.740;2023-03-03T04:07:33;56086.59;;;-142.21;100.00
5053;BME280;2545;50.892;5.740;2023-03-03T04:09:58;56139.53;;;-142.21;100.00
5053;BME280;2545;50.892;5.740;2023-03-03T04:12:24;56108.16;;;-142.21;100.00
5053;BME280;2545;50.892;5.740;2023-03-03T04:14:49;56096.41;;;-142.21;100.00
5053;BME280;2545;50.892;5.740;2023-03-03T04:17:21;56135.63;;;-142.21;100.00
5053;BME280;2545;50.892;5.740;2023-03-03T04:19:48;56121.91;;;-142.21;100.00
5053;BME280;2545;50.892;5.740;2023-03-03T04:22:14;56098.38;;;-142.21;100.00
5053;BME280;2545;50.892;5.740;2023-03-03T04:24:39;56123.84;;;-142.21;100.00
5053;BME280;2545;50.892;5.740;2023-03-03T04:27:06;56116.00;;;-142.21;100.00
5053;BME280;2545;50.892;5.740;2023-03-03T04:29:32;56155.22;;;-142.21;100.00
5053;BME280;2545;50.892;5.740;2023-03-03T04:31:58;56100.31;;;-142.21;100.00
5053;BME280;2545;50.892;5.740;2023-03-03T04:34:23;56159.16;;;-142.21;100.00
5053;BME280;2545;50.892;5.740;2023-03-03T04:36:49;56096.41;;;-142.21;100.00
5053;BME280;2545;50.892;5.740;2023-03-03T04:39:15;56155.22;;;-142.21;100.00
5053;BME280;2545;50.892;5.740;2023-03-03T04:41:40;56159.16;;;-142.21;100.00
5053;BME280;2545;50.892;5.740;2023-03-03T04:44:06;56165.03;;;-142.21;100.00
5053;BME280;2545;50.892;5.740;2023-03-03T04:46:31;56123.84;;;-142.21;100.00
5053;BME280;2545;50.892;5.740;2023-03-03T04:48:56;56114.06;;;-142.21;100.00
5053;BME280;2545;50.892;5.740;2023-03-03T04:51:22;56143.47;;;-142.21;100.00
5053;BME280;2545;50.892;5.740;2023-03-03T04:53:47;56135.63;;;-142.21;100.00
5053;BME280;2545;50.892;5.740;2023-03-03T04:56:12;56114.06;;;-142.21;100.00
5053;BME280;2545;50.892;5.740;2023-03-03T04:58:38;56116.00;;;-142.21;100.00
5053;BME280;2545;50.892;5.740;2023-03-03T05:01:03;56129.75;;;-142.21;100.00
5053;BME280;2545;50.892;5.740;2023-03-03T05:03:29;56117.97;;;-142.21;100.00
5053;BME280;2545;50.892;5.740;2023-03-03T05:05:54;56110.13;;;-142.21;100.00
5053;BME280;2545;50.892;5.740;2023-03-03T05:08:20;56129.75;;;-142.21;100.00
5053;BME280;2545;50.892;5.740;2023-03-03T05:10:46;56106.22;;;-142.21;100.00
5053;BME280;2545;50.892;5.740;2023-03-03T05:13:15;56149.34;;;-142.21;100.00
5053;BME280;2545;50.892;5.740;2023-03-03T05:15:41;56112.09;;;-142.21;100.00
5053;BME280;2545;50.892;5.740;2023-03-03T05:18:07;56141.50;;;-142.21;100.00
5053;BME280;2545;50.892;5.740;2023-03-03T05:20:33;56110.13;;;-142.21;100.00
5053;BME280;2545;50.892;5.740;2023-03-03T05:22:58;56131.69;;;-142.21;100.00
5053;BME280;2545;50.892;5.740;2023-03-03T05:25:25;56131.69;;;-142.21;100.00
5053;BME280;2545;50.892;5.740;2023-03-03T05:27:51;56141.50;;;-142.21;100.00
5053;BME280;2545;50.892;5.740;2023-03-03T05:30:16;56131.69;;;-142.21;100.00
5053;BME280;2545;50.892;5.740;2023-03-03T05:32:41;56141.50;;;-142.21;100.00
5053;BME280;2545;50.892;5.740;2023-03-03T05:35:07;56108.16;;;-142.21;100.00
5053;BME280;2545;50.892;5.740;2023-03-03T05:37:32;56147.38;;;-142.21;100.00
5053;BME280;2545;50.892;5.740;2023-03-03T05:39:57;56127.78;;;-142.21;100.00
5053;BME280;2545;50.892;5.740;2023-03-03T05:42:23;56155.22;;;-142.21;100.00
5053;BME280;2545;50.892;5.740;2023-03-03T05:44:48;56155.22;;;-142.21;100.00
5053;BME280;2545;50.892;5.740;2023-03-03T05:47:13;56129.75;;;-142.21;100.00
5053;BME280;2545;50.892;5.740;2023-03-03T05:49:39;56159.16;;;-142.21;100.00
5053;BME280;2545;50.892;5.740;2023-03-03T05:52:04;56133.66;;;-142.21;100.00
5053;BME280;2545;50.892;5.740;2023-03-03T05:54:30;56129.75;;;-142.21;100.00
5053;BME280;2545;50.892;5.740;2023-03-03T05:56:55;56139.53;;;-142.21;100.00
5053;BME280;2545;50.892;5.740;2023-03-03T05:59:22;56119.94;;;-142.21;100.00
5053;BME280;2545;50.892;5.740;2023-03-03T06:01:47;56129.75;;;-142.21;100.00
5053;BME280;2545;50.892;5.740;2023-03-03T06:04:13;56092.47;;;-142.21;100.00
5053;BME280;2545;50.892;5.740;2023-03-03T06:06:38;56117.97;;;-142.21;100.00
5053;BME280;2545;50.892;5.740;2023-03-03T06:09:03;56143.47;;;-142.21;100.00
5053;BME280;2545;50.892;5.740;2023-03-03T06:11:29;56131.69;;;-142.21;100.00
5053;BME280;2545;50.892;5.740;2023-03-03T06:13:54;56117.97;;;-142.21;100.00
5053;BME280;2545;50.892;5.740;2023-03-03T06:16:20;56143.47;;;-142.21;100.00
5053;BME280;2545;50.892;5.740;2023-03-03T06:18:45;56127.78;;;-142.21;100.00
5053;BME280;2545;50.892;5.740;2023-03-03T06:21:10;56135.63;;;-142.21;100.00
5053;BME280;2545;50.892;5.740;2023-03-03T06:23:36;56117.97;;;-142.21;100.00
5053;BME280;2545;50.892;5.740;2023-03-03T06:26:01;56112.09;;;-142.21;100.00
5053;BME280;2545;50.892;5.740;2023-03-03T06:28:27;56151.31;;;-142.21;100.00
5053;BME280;2545;50.892;5.740;2023-03-03T06:30:55;56106.22;;;-142.21;100.00
5053;BME280;2545;50.892;5.740;2023-03-03T06:33:21;56145.44;;;-142.21;100.00
5053;BME280;2545;50.892;5.740;2023-03-03T06:35:51;56170.91;;;-142.21;100.00
5053;BME280;2545;50.892;5.740;2023-03-03T06:38:17;56157.19;;;-142.21;100.00
5053;BME280;2545;50.892;5.740;2023-03-03T06:40:43;56119.94;;;-142.21;100.00
5053;BME280;2545;50.892;5.740;2023-03-03T06:43:09;56121.91;;;-142.21;100.00
5053;BME280;2545;50.892;5.740;2023-03-03T06:45:35;56153.28;;;-142.21;100.00
5053;BME280;2545;50.892;5.740;2023-03-03T06:48:00;56123.84;;;-142.21;100.00
5053;BME280;2545;50.892;5.740;2023-03-03T06:50:26;56176.78;;;-142.21;100.00
5053;BME280;2545;50.892;5.740;2023-03-03T06:53:01;56092.47;;;-142.21;100.00
5053;BME280;2545;50.892;5.740;2023-03-03T06:55:26;56143.47;;;-142.21;100.00
5053;BME280;2545;50.892;5.740;2023-03-03T06:57:52;56151.31;;;-142.21;100.00
5053;BME280;2545;50.892;5.740;2023-03-03T07:00:23;56131.69;;;-142.21;100.00
5053;BME280;2545;50.892;5.740;2023-03-03T07:03:19;56116.00;;;-142.21;100.00
5053;BME280;2545;50.892;5.740;2023-03-03T07:05:46;56174.84;;;-142.21;100.00
5053;BME280;2545;50.892;5.740;2023-03-03T07:08:17;56147.38;;;-142.21;100.00
5053;BME280;2545;50.892;5.740;2023-03-03T07:10:45;56141.50;;;-142.21;100.00
5053;BME280;2545;50.892;5.740;2023-03-03T07:15:44;56145.44;;;-142.21;100.00
5053;BME280;2545;50.892;5.740;2023-03-03T07:21:33;56161.13;;;-142.21;100.00
5053;BME280;2545;50.892;5.740;2023-03-03T07:24:00;56137.59;;;-142.21;100.00
5053;BME280;2545;50.892;5.740;2023-03-03T07:26:28;56114.06;;;-142.21;100.00
5053;BME280;2545;50.892;5.740;2023-03-03T07:31:30;56149.34;;;-142.21;100.00
5053;BME280;2545;50.892;5.740;2023-03-03T07:33:59;56147.38;;;-142.21;100.00
5053;BME280;2545;50.892;5.740;2023-03-03T07:36:28;56149.34;;;-142.21;100.00
5053;BME280;2545;50.892;5.740;2023-03-03T07:38:57;56145.44;;;-142.21;100.00
5053;BME280;2545;50.892;5.740;2023-03-03T07:41:22;56155.22;;;-142.21;100.00
5053;BME280;2545;50.892;5.740;2023-03-03T07:48:55;56143.47;;;-142.21;100.00
5053;BME280;2545;50.892;5.740;2023-03-03T07:51:46;56147.38;;;-142.21;100.00
5053;BME280;2545;50.892;5.740;2023-03-03T07:57:00;56170.91;;;-142.21;100.00
5053;BME280;2545;50.892;5.740;2023-03-03T07:59:27;56135.63;;;-142.21;100.00
5053;BME280;2545;50.892;5.740;2023-03-03T08:01:54;56167.00;;;-142.21;100.00
5053;BME280;2545;50.892;5.740;2023-03-03T08:04:22;56082.69;;;-142.21;100.00
5053;BME280;2545;50.892;5.740;2023-03-03T08:12:09;56137.59;;;-142.21;100.00
5053;BME280;2545;50.892;5.740;2023-03-03T08:14:38;56147.38;;;-142.21;100.00
5053;BME280;2545;50.892;5.740;2023-03-03T08:17:20;56151.31;;;-142.21;100.00
5053;BME280;2545;50.892;5.740;2023-03-03T08:19:46;56149.34;;;-142.21;100.00
5053;BME280;2545;50.892;5.740;2023-03-03T08:22:17;56149.34;;;-142.21;100.00
5053;BME280;2545;50.892;5.740;2023-03-03T08:24:43;56116.00;;;-142.21;100.00
5053;BME280;2545;50.892;5.740;2023-03-03T08:27:08;56141.50;;;-142.21;100.00
5053;BME280;2545;50.892;5.740;2023-03-03T08:29:34;56155.22;;;-142.21;100.00
5053;BME280;2545;50.892;5.740;2023-03-03T08:31:59;56161.13;;;-142.21;100.00
5053;BME280;2545;50.892;5.740;2023-03-03T08:34:24;56167.00;;;-142.21;100.00
5053;BME280;2545;50.892;5.740;2023-03-03T08:36:50;56147.38;;;-142.21;100.00
5053;BME280;2545;50.892;5.740;2023-03-03T08:39:15;56161.13;;;-142.21;100.00
5053;BME280;2545;50.892;5.740;2023-03-03T08:41:40;56153.28;;;-142.21;100.00
5053;BME280;2545;50.892;5.740;2023-03-03T08:44:09;56145.44;;;-142.21;100.00
5053;BME280;2545;50.892;5.740;2023-03-03T08:46:35;56135.63;;;-142.21;100.00
5053;BME280;2545;50.892;5.740;2023-03-03T08:49:00;56159.16;;;-142.21;99.73
5053;BME280;2545;50.892;5.740;2023-03-03T08:51:26;56159.16;;;-142.21;99.75
5053;BME280;2545;50.892;5.740;2023-03-03T08:53:51;56143.47;;;-142.21;99.29
5053;BME280;2545;50.892;5.740;2023-03-03T08:56:16;56165.03;;;-142.21;98.73
5053;BME280;2545;50.892;5.740;2023-03-03T08:58:42;56080.72;;;-142.21;98.32
5053;BME280;2545;50.892;5.740;2023-03-03T09:01:12;56133.66;;;-142.21;97.52
5053;BME280;2545;50.892;5.740;2023-03-03T09:03:39;56176.78;;;-142.21;96.97
5053;BME280;2545;50.892;5.740;2023-03-03T09:06:05;56123.84;;;-142.21;96.78
5053;BME280;2545;50.892;5.740;2023-03-03T09:08:31;56127.78;;;-142.21;96.70
5053;BME280;2545;50.892;5.740;2023-03-03T09:10:56;56143.47;;;-142.21;96.12
5053;BME280;2545;50.892;5.740;2023-03-03T09:13:21;56127.78;;;-142.21;95.55
5053;BME280;2545;50.892;5.740;2023-03-03T09:15:47;56112.09;;;-142.21;95.11
5053;BME280;2545;50.892;5.740;2023-03-03T09:18:19;56147.38;;;-142.21;95.53
5053;BME280;2545;50.892;5.740;2023-03-03T09:20:47;56178.75;;;-142.21;95.35
5053;BME280;2545;50.892;5.740;2023-03-03T09:23:32;56141.50;;;-142.21;94.72
5053;BME280;2545;50.892;5.740;2023-03-03T09:29:22;56137.59;;;-142.21;93.63
5053;BME280;2545;50.892;5.740;2023-03-03T09:31:46;56114.06;;;-142.21;92.47
5053;BME280;2545;50.892;5.740;2023-03-03T09:34:21;56139.53;;;-142.21;92.01
5053;BME280;2545;50.892;5.740;2023-03-03T09:36:48;56141.50;;;-142.21;91.65
5053;BME280;2545;50.892;5.740;2023-03-03T09:47:32;56143.47;;;-142.21;87.50
5053;BME280;2545;50.892;5.740;2023-03-03T09:50:25;56129.75;;;-142.21;87.25
5053;BME280;2545;50.892;5.740;2023-03-03T09:55:43;56084.63;;;-142.21;85.96
5053;BME280;2545;50.892;5.740;2023-03-03T09:58:33;56167.00;;;-142.21;85.85
5053;BME280;2545;50.892;5.740;2023-03-03T10:04:02;56123.84;;;-142.21;83.40
5053;BME280;2545;50.892;5.740;2023-03-03T10:06:47;56147.38;;;-142.21;83.46
5053;BME280;2545;50.892;5.740;2023-03-03T10:18:11;56127.78;;;-142.21;81.78
5053;BME280;2545;50.892;5.740;2023-03-03T10:37:47;56127.78;;;-142.21;77.53
5053;BME280;2545;50.892;5.740;2023-03-03T10:43:20;56137.59;;;-142.21;76.51
5053;BME280;2545;50.892;5.740;2023-03-03T10:52:10;56149.34;;;-142.21;75.25
5053;BME280;2545;50.892;5.740;2023-03-03T10:57:35;56163.06;;;-142.21;74.98
5053;BME280;2545;50.892;5.740;2023-03-03T11:05:38;56129.75;;;-142.21;74.27
5053;BME280;2545;50.892;5.740;2023-03-03T11:08:16;56145.44;;;-142.21;74.13
5053;BME280;2545;50.892;5.740;2023-03-03T11:11:09;56127.78;;;-142.21;73.16
5053;BME280;2545;50.892;5.740;2023-03-03T11:13:53;56117.97;;;-142.21;72.88
5053;BME280;2545;50.892;5.740;2023-03-03T11:27:32;56168.97;;;-142.21;70.58
5053;BME280;2545;50.892;5.740;2023-03-03T11:32:59;56125.81;;;-142.21;70.52
5053;BME280;2545;50.892;5.740;2023-03-03T11:38:47;56133.66;;;-142.21;70.88
5053;BME280;2545;50.892;5.740;2023-03-03T11:44:09;56137.59;;;-142.21;69.35
5053;BME280;2545;50.892;5.740;2023-03-03T11:46:55;56100.31;;;-142.21;68.03
5053;BME280;2545;50.892;5.740;2023-03-03T11:52:45;56114.06;;;-142.21;68.58
5053;BME280;2545;50.892;5.740;2023-03-03T11:55:35;56151.31;;;-142.21;68.39
5053;BME280;2545;50.892;5.740;2023-03-03T11:58:07;56165.03;;;-142.21;67.98
5053;BME280;2545;50.892;5.740;2023-03-03T12:03:47;56131.69;;;-142.21;66.49
5053;BME280;2545;50.892;5.740;2023-03-03T12:14:31;56149.34;;;-142.21;65.48
5053;BME280;2545;50.892;5.740;2023-03-03T12:17:11;56131.69;;;-142.21;65.48
5053;BME280;2545;50.892;5.740;2023-03-03T12:19:53;56135.63;;;-142.21;64.13
5053;BME280;2545;50.892;5.740;2023-03-03T12:22:38;56137.59;;;-142.21;63.11
5053;BME280;2545;50.892;5.740;2023-03-03T12:28:12;56125.81;;;-142.21;63.42
5053;BME280;2545;50.892;5.740;2023-03-03T12:30:53;56108.16;;;-142.21;63.42
5053;BME280;2545;50.892;5.740;2023-03-03T12:39:00;56116.00;;;-142.21;64.07
5053;BME280;2545;50.892;5.740;2023-03-03T12:44:46;56123.84;;;-142.21;64.34
5053;BME280;2545;50.892;5.740;2023-03-03T12:49:53;56127.78;;;-142.21;62.81
5053;BME280;2545;50.892;5.740;2023-03-03T12:53:38;56129.75;;;-142.21;63.67
5053;BME280;2545;50.892;5.740;2023-03-03T12:58:40;56106.22;;;-142.21;62.11
5053;BME280;2545;50.892;5.740;2023-03-03T13:01:47;56127.78;;;-142.21;61.35
5053;BME280;2545;50.892;5.740;2023-03-03T13:04:36;56129.75;;;-142.21;60.77
5053;BME280;2545;50.892;5.740;2023-03-03T13:09:35;56129.75;;;-142.21;61.68
5053;BME280;2545;50.892;5.740;2023-03-03T13:15:41;56123.84;;;-142.21;61.48
5053;BME280;2545;50.892;5.740;2023-03-03T13:26:48;56149.34;;;-142.21;63.58
5053;BME280;2545;50.892;5.740;2023-03-03T13:29:25;56108.16;;;-142.21;62.96
5053;BME280;2545;50.892;5.740;2023-03-03T13:31:58;56096.41;;;-142.21;62.37
5053;BME280;2545;50.892;5.740;2023-03-03T13:37:10;56170.91;;;-142.21;66.24
5053;BME280;2545;50.892;5.740;2023-03-03T13:40:05;56155.22;;;-142.21;66.63
5053;BME280;2545;50.892;5.740;2023-03-03T13:43:25;56119.94;;;-142.21;66.32
5053;BME280;2545;50.892;5.740;2023-03-03T13:48:27;56123.84;;;-142.21;66.61
5053;BME280;2545;50.892;5.740;2023-03-03T13:57:16;56082.69;;;-142.21;66.89
5053;BME280;2545;50.892;5.740;2023-03-03T14:02:35;56131.69;;;-142.21;66.07
5053;BME280;2545;50.892;5.740;2023-03-03T14:05:37;56129.75;;;-142.21;65.96
5053;BME280;2545;50.892;5.740;2023-03-03T14:11:06;56131.69;;;-142.21;65.47
5053;BME280;2545;50.892;5.740;2023-03-03T14:19:17;56117.97;;;-142.21;65.84
5053;BME280;2545;50.892;5.740;2023-03-03T14:21:56;56139.53;;;-142.21;65.71
5053;BME280;2545;50.892;5.740;2023-03-03T14:24:25;56157.19;;;-142.21;65.37
5053;BME280;2545;50.892;5.740;2023-03-03T14:26:53;56098.38;;;-142.21;64.61
5053;BME280;2545;50.892;5.740;2023-03-03T14:31:51;56104.25;;;-142.21;63.14
5053;BME280;2545;50.892;5.740;2023-03-03T14:36:50;56155.22;;;-142.21;61.93
5053;BME280;2545;50.892;5.740;2023-03-03T14:39:36;56129.75;;;-142.21;59.99
5053;BME280;2545;50.892;5.740;2023-03-03T14:42:12;56094.44;;;-142.21;58.58
5053;BME280;2545;50.892;5.740;2023-03-03T14:49:37;56123.84;;;-142.21;52.52
5053;BME280;2545;50.892;5.740;2023-03-03T14:54:42;56116.00;;;-142.21;51.44
5053;BME280;2545;50.892;5.740;2023-03-03T14:57:37;56112.09;;;-142.21;51.38
5053;BME280;2545;50.892;5.740;2023-03-03T15:02:43;56137.59;;;-142.21;49.72
5053;BME280;2545;50.892;5.740;2023-03-03T15:05:25;56119.94;;;-142.21;48.77
5053;BME280;2545;50.892;5.740;2023-03-03T15:10:40;56096.41;;;-142.21;49.35
5053;BME280;2545;50.892;5.740;2023-03-03T15:13:34;56108.16;;;-142.21;44.45
5053;BME280;2545;50.892;5.740;2023-03-03T15:18:25;56117.97;;;-142.21;45.03
5053;BME280;2545;50.892;5.740;2023-03-03T15:21:12;56114.06;;;-142.21;44.90
5053;BME280;2545;50.892;5.740;2023-03-03T15:32:12;56080.72;;;-142.21;37.67
5053;BME280;2545;50.892;5.740;2023-03-03T15:34:45;56082.69;;;-142.21;37.37
5053;BME280;2545;50.892;5.740;2023-03-03T15:42:51;56043.47;;;-142.21;34.94
5053;BME280;2545;50.892;5.740;2023-03-03T15:45:30;56072.88;;;-142.21;34.66
5053;BME280;2545;50.892;5.740;2023-03-03T15:48:12;56080.72;;;-142.21;33.45
5053;BME280;2545;50.892;5.740;2023-03-03T15:51:39;56090.53;;;-142.21;33.04
5053;BME280;2545;50.892;5.740;2023-03-03T15:54:01;56041.50;;;-142.21;32.57
5053;BME280;2545;50.892;5.740;2023-03-03T15:59:37;56076.78;;;-142.21;31.29
5053;BME280;2545;50.892;5.740;2023-03-03T16:02:17;56039.53;;;-142.21;32.19
5053;BME280;2545;50.892;5.740;2023-03-03T16:04:52;56063.06;;;-142.21;32.37
5053;BME280;2545;50.892;5.740;2023-03-03T16:07:27;56031.69;;;-142.21;32.48
5053;BME280;2545;50.892;5.740;2023-03-03T16:18:32;56029.72;;;-142.21;33.40
5053;BME280;2545;50.892;5.740;2023-03-03T16:21:25;56019.94;;;-142.21;33.95
5053;BME280;2545;50.892;5.740;2023-03-03T16:24:07;56055.22;;;-142.21;34.82
5053;BME280;2545;50.892;5.740;2023-03-03T16:26:47;56061.09;;;-142.21;36.31
5053;BME280;2545;50.892;5.740;2023-03-03T16:35:41;56045.41;;;-142.21;41.33
5053;BME280;2545;50.892;5.740;2023-03-03T16:40:32;56045.41;;;-142.21;40.76
5053;BME280;2545;50.892;5.740;2023-03-03T16:45:45;56094.44;;;-142.21;42.90
5053;BME280;2545;50.892;5.740;2023-03-03T16:48:51;56084.63;;;-142.21;44.44
5053;BME280;2545;50.892;5.740;2023-03-03T16:54:17;56084.63;;;-142.21;49.68
5053;BME280;2545;50.892;5.740;2023-03-03T16:56:51;56082.69;;;-142.21;53.03
5053;BME280;2545;50.892;5.740;2023-03-03T17:14:41;56068.94;;;-142.21;67.83
5053;BME280;2545;50.892;5.740;2023-03-03T17:28:39;56076.78;;;-142.21;74.63
5053;BME280;2545;50.892;5.740;2023-03-03T17:31:30;56106.22;;;-142.21;76.42
5053;BME280;2545;50.892;5.740;2023-03-03T17:44:42;56121.91;;;-142.21;80.42
5053;BME280;2545;50.892;5.740;2023-03-03T17:47:12;56096.41;;;-142.21;81.36
5053;BME280;2545;50.892;5.740;2023-03-03T17:55:01;56112.09;;;-142.21;83.60
5053;BME280;2545;50.892;5.740;2023-03-03T18:00:42;56112.09;;;-142.21;84.41
5053;BME280;2545;50.892;5.740;2023-03-03T18:12:17;56135.63;;;-142.21;84.24
5053;BME280;2545;50.892;5.740;2023-03-03T18:14:29;56112.09;;;-142.21;84.21